createdAt,value
2019-03-20T00:02:21.138Z,1.20
2019-03-20T00:04:51.355Z,1.20
2019-03-20T00:07:21.678Z,1.20
2019-03-20T00:09:52.002Z,1.30
2019-03-20T00:12:22.333Z,1.30
2019-03-20T00:14:52.650Z,1.20
2019-03-20T00:17:22.769Z,1.20
2019-03-20T00:20:05.240Z,1.10
2019-03-20T00:22:35.499Z,1.20
2019-03-20T00:25:07.666Z,1.10
2019-03-20T00:27:37.989Z,1.10
2019-03-20T00:30:32.071Z,1.20
2019-03-20T00:33:02.395Z,1.20
2019-03-20T00:35:32.725Z,1.20
2019-03-20T00:38:03.248Z,1.10
2019-03-20T00:40:33.570Z,1.10
2019-03-20T00:43:16.388Z,1.10
2019-03-20T00:45:46.710Z,1.00
2019-03-20T00:48:17.034Z,1.10
2019-03-20T00:50:47.562Z,1.00
2019-03-20T00:53:17.682Z,1.10
2019-03-20T00:55:48.099Z,1.10
2019-03-20T00:58:18.535Z,1.00
2019-03-20T01:00:48.861Z,1.00
2019-03-20T01:03:19.183Z,1.00
2019-03-20T01:05:49.505Z,1.00
2019-03-20T01:08:20.033Z,1.10
2019-03-20T01:10:50.357Z,1.00
2019-03-20T01:13:20.680Z,1.00
2019-03-20T01:15:51.003Z,1.00
2019-03-20T01:18:22.540Z,0.90
2019-03-20T01:20:53.087Z,0.90
2019-03-20T01:23:23.408Z,0.90
2019-03-20T01:25:53.734Z,0.90
2019-03-20T01:28:24.263Z,0.90
2019-03-20T01:30:54.792Z,0.80
2019-03-20T01:33:25.321Z,0.90
2019-03-20T01:35:55.645Z,0.90
2019-03-20T01:38:38.095Z,0.90
2019-03-20T01:41:08.373Z,0.90
2019-03-20T01:43:38.695Z,0.80
2019-03-20T01:46:09.223Z,0.80
2019-03-20T01:48:39.752Z,0.80
2019-03-20T01:51:21.546Z,0.80
2019-03-20T01:53:51.868Z,0.90
2019-03-20T01:56:21.990Z,0.90
2019-03-20T01:58:52.300Z,0.80
2019-03-20T02:01:23.045Z,0.80
2019-03-20T02:03:53.982Z,0.80
2019-03-20T02:06:24.306Z,0.80
2019-03-20T02:08:54.639Z,0.80
2019-03-20T02:11:25.158Z,0.80
2019-03-20T02:13:55.277Z,0.70
2019-03-20T02:16:25.613Z,0.70
2019-03-20T02:18:55.926Z,0.70
2019-03-20T02:21:26.248Z,0.70
2019-03-20T02:23:56.572Z,0.70
2019-03-20T02:26:26.895Z,0.80
2019-03-20T02:28:57.221Z,0.80
2019-03-20T02:31:27.544Z,0.70
2019-03-20T02:33:57.867Z,0.70
2019-03-20T02:36:28.191Z,0.70
2019-03-20T02:38:58.930Z,0.70
2019-03-20T02:41:29.247Z,0.70
2019-03-20T02:43:59.981Z,0.70
2019-03-20T02:46:30.306Z,0.70
2019-03-20T02:49:00.630Z,0.70
2019-03-20T02:51:30.954Z,0.70
2019-03-20T02:54:01.278Z,0.70
2019-03-20T02:56:31.818Z,0.70
2019-03-20T02:59:02.538Z,0.60
2019-03-20T03:01:33.270Z,0.60
2019-03-20T03:04:03.596Z,0.70
2019-03-20T03:06:33.920Z,0.70
2019-03-20T03:09:07.524Z,0.60
2019-03-20T03:11:37.856Z,0.60
2019-03-20T03:14:08.371Z,0.60
2019-03-20T03:16:38.694Z,0.60
2019-03-20T03:19:09.223Z,0.60
2019-03-20T03:21:39.758Z,0.60
2019-03-20T03:24:10.077Z,0.40
2019-03-20T03:26:40.408Z,0.40
2019-03-20T03:29:10.928Z,0.50
2019-03-20T03:31:41.255Z,0.50
2019-03-20T03:34:11.589Z,0.50
2019-03-20T03:36:41.901Z,0.60
2019-03-20T03:39:12.429Z,0.60
2019-03-20T03:41:42.750Z,0.50
2019-03-20T03:44:13.076Z,0.60
2019-03-20T03:46:43.400Z,0.60
2019-03-20T03:49:13.724Z,0.60
2019-03-20T03:51:44.047Z,0.60
2019-03-20T03:54:14.360Z,0.60
2019-03-20T03:56:44.902Z,0.60
2019-03-20T03:59:15.018Z,0.60
2019-03-20T04:01:45.545Z,0.60
2019-03-20T04:04:15.666Z,0.50
2019-03-20T04:06:45.787Z,0.50
2019-03-20T04:09:16.317Z,0.50
2019-03-20T04:11:46.431Z,0.50
2019-03-20T04:14:16.857Z,0.40
2019-03-20T04:16:47.682Z,0.40
2019-03-20T04:19:17.812Z,0.50
2019-03-20T04:21:48.341Z,0.50
2019-03-20T04:24:18.458Z,0.40
2019-03-20T04:26:48.783Z,0.40
2019-03-20T04:29:19.108Z,0.30
2019-03-20T04:31:49.432Z,0.30
2019-03-20T04:34:19.754Z,0.30
2019-03-20T04:36:50.082Z,0.30
2019-03-20T04:39:20.400Z,0.30
2019-03-20T04:41:50.733Z,0.30
2019-03-20T04:44:21.049Z,0.30
2019-03-20T04:46:51.166Z,0.30
2019-03-20T04:49:21.699Z,0.30
2019-03-20T04:51:52.225Z,0.40
2019-03-20T04:54:22.549Z,0.40
2019-03-20T04:56:53.079Z,0.40
2019-03-20T04:59:23.195Z,0.40
2019-03-20T05:01:53.520Z,0.40
2019-03-20T05:04:23.843Z,0.30
2019-03-20T05:06:58.909Z,0.40
2019-03-20T05:09:25.926Z,0.40
2019-03-20T05:11:56.248Z,0.40
2019-03-20T05:14:26.576Z,0.40
2019-03-20T05:16:56.895Z,0.40
2019-03-20T05:19:27.219Z,0.40
2019-03-20T05:21:57.542Z,0.40
2019-03-20T05:24:27.865Z,0.50
2019-03-20T05:26:58.191Z,0.50
2019-03-20T05:29:28.311Z,0.60
2019-03-20T05:32:00.367Z,0.70
2019-03-20T05:34:49.845Z,0.80
2019-03-20T05:37:20.171Z,0.90
2019-03-20T05:39:50.493Z,1.00
2019-03-20T05:42:21.672Z,1.00
2019-03-20T05:44:52.574Z,1.10
2019-03-20T05:47:22.897Z,1.10
2019-03-20T05:49:53.221Z,1.20
2019-03-20T05:52:23.385Z,1.40
2019-03-20T05:54:53.667Z,1.60
2019-03-20T05:57:23.989Z,1.80
2019-03-20T05:59:54.310Z,1.80
2019-03-20T06:02:25.788Z,1.80
2019-03-20T06:04:56.393Z,1.80
2019-03-20T06:07:26.724Z,1.80
2019-03-20T06:09:57.047Z,1.80
2019-03-20T06:12:27.249Z,1.80
2019-03-20T06:14:58.301Z,1.90
2019-03-20T06:17:28.831Z,2.00
2019-03-20T06:19:58.949Z,2.00
2019-03-20T06:22:29.477Z,2.30
2019-03-20T06:25:00.006Z,2.80
2019-03-20T06:27:30.332Z,3.30
2019-03-20T06:30:00.653Z,3.70
2019-03-20T06:32:30.976Z,4.00
2019-03-20T06:35:01.720Z,4.30
2019-03-20T06:37:32.720Z,4.30
2019-03-20T06:40:03.596Z,4.40
2019-03-20T06:42:33.715Z,4.50
2019-03-20T06:45:04.646Z,4.60
2019-03-20T06:47:35.174Z,4.80
2019-03-20T06:50:08.367Z,5.00
2019-03-20T06:52:39.097Z,4.90
2019-03-20T06:55:10.859Z,4.90
2019-03-20T06:57:41.589Z,4.70
2019-03-20T07:00:37.307Z,5.00
2019-03-20T07:03:10.498Z,5.20
2019-03-20T07:06:11.746Z,5.30
2019-03-20T07:09:16.888Z,5.30
2019-03-20T07:11:47.505Z,5.50
2019-03-20T07:14:17.738Z,5.80
2019-03-20T07:16:48.268Z,6.10
2019-03-20T07:19:18.386Z,6.80
2019-03-20T07:21:48.711Z,7.40
2019-03-20T07:24:19.241Z,7.90
2019-03-20T07:26:49.343Z,7.60
2019-03-20T07:29:19.475Z,7.30
2019-03-20T07:31:49.798Z,7.30
2019-03-20T07:34:19.917Z,7.30
2019-03-20T07:36:50.446Z,7.50
2019-03-20T07:39:20.775Z,7.70
2019-03-20T07:41:51.298Z,7.20
2019-03-20T07:44:21.621Z,7.50
2019-03-20T07:46:51.947Z,7.60
2019-03-20T07:49:22.473Z,7.40
2019-03-20T07:51:52.589Z,7.20
2019-03-20T07:54:22.916Z,7.30
2019-03-20T07:56:53.239Z,7.40
2019-03-20T07:59:23.768Z,8.00
2019-03-20T08:01:53.888Z,8.90
2019-03-20T08:04:24.211Z,9.10
2019-03-20T08:06:54.534Z,9.10
2019-03-20T08:09:25.778Z,9.30
2019-03-20T08:11:56.206Z,8.70
2019-03-20T08:14:26.734Z,8.70
2019-03-20T08:16:56.854Z,9.50
2019-03-20T08:19:27.180Z,9.70
2019-03-20T08:21:57.501Z,9.90
2019-03-20T08:24:27.825Z,9.80
2019-03-20T08:26:57.948Z,10.10
2019-03-20T08:29:28.267Z,10.90
2019-03-20T08:31:58.801Z,11.20
2019-03-20T08:34:29.325Z,11.20
2019-03-20T08:37:02.335Z,12.00
2019-03-20T08:39:31.613Z,12.30
2019-03-20T08:42:02.139Z,12.50
2019-03-20T08:44:32.463Z,13.20
2019-03-20T08:47:02.790Z,12.70
2019-03-20T08:49:33.520Z,11.70
2019-03-20T08:52:03.637Z,11.50
2019-03-20T08:54:33.961Z,11.70
2019-03-20T08:57:04.286Z,11.80
2019-03-20T08:59:34.610Z,11.80
2019-03-20T09:02:05.202Z,11.70
2019-03-20T09:04:35.824Z,11.70
2019-03-20T09:07:06.404Z,11.80
2019-03-20T09:09:36.723Z,11.80
2019-03-20T09:12:07.047Z,11.90
2019-03-20T09:14:37.370Z,12.10
2019-03-20T09:17:07.694Z,12.30
2019-03-20T09:19:38.018Z,12.80
2019-03-20T09:22:08.342Z,12.50
2019-03-20T09:24:38.683Z,11.50
2019-03-20T09:27:08.988Z,11.50
2019-03-20T09:29:41.125Z,11.40
2019-03-20T09:32:11.684Z,11.20
2019-03-20T09:34:42.214Z,10.70
2019-03-20T09:37:12.742Z,11.10
2019-03-20T09:39:43.066Z,11.10
2019-03-20T09:42:13.189Z,10.60
2019-03-20T09:44:43.509Z,10.40
2019-03-20T09:47:13.832Z,10.00
2019-03-20T09:49:44.157Z,10.00
2019-03-20T09:52:14.290Z,10.90
2019-03-20T09:54:44.802Z,11.70
2019-03-20T09:57:16.356Z,12.40
2019-03-20T09:59:46.679Z,12.90
2019-03-20T10:02:17.002Z,13.20
2019-03-20T10:04:47.530Z,13.60
2019-03-20T10:07:18.470Z,14.50
2019-03-20T10:09:48.999Z,15.20
2019-03-20T10:12:19.324Z,15.00
2019-03-20T10:14:49.650Z,15.60
2019-03-20T10:17:19.766Z,15.30
2019-03-20T10:19:50.293Z,15.80
2019-03-20T10:22:20.616Z,16.00
2019-03-20T10:24:50.944Z,15.20
2019-03-20T10:27:21.264Z,15.30
2019-03-20T10:29:51.588Z,14.70
2019-03-20T10:32:21.709Z,14.70
2019-03-20T10:34:52.030Z,14.30
2019-03-20T10:37:22.354Z,14.60
2019-03-20T10:39:52.473Z,14.20
2019-03-20T10:42:23.001Z,13.70
2019-03-20T10:44:53.939Z,13.50
2019-03-20T10:47:24.462Z,13.30
2019-03-20T10:49:54.792Z,14.10
2019-03-20T10:52:25.322Z,14.90
2019-03-20T10:54:55.648Z,14.70
2019-03-20T10:57:25.969Z,14.80
2019-03-20T10:59:56.294Z,14.90
2019-03-20T11:02:26.622Z,15.10
2019-03-20T11:04:56.939Z,14.80
2019-03-20T11:07:27.472Z,14.70
2019-03-20T11:09:57.586Z,14.70
2019-03-20T11:12:27.910Z,13.70
2019-03-20T11:14:58.234Z,13.20
2019-03-20T11:17:28.762Z,13.80
2019-03-20T11:20:00.449Z,14.70
2019-03-20T11:22:31.253Z,15.00
2019-03-20T11:25:01.577Z,14.90
2019-03-20T11:27:33.378Z,14.60
2019-03-20T11:30:06.525Z,15.00
2019-03-20T11:32:36.848Z,15.70
2019-03-20T11:35:07.407Z,15.80
2019-03-20T11:37:37.496Z,16.30
2019-03-20T11:40:13.350Z,16.40
2019-03-20T11:42:44.082Z,16.80
2019-03-20T11:45:14.815Z,17.40
2019-03-20T11:47:45.140Z,17.60
2019-03-20T11:50:20.829Z,17.80
2019-03-20T11:52:51.119Z,18.50
2019-03-20T11:55:21.848Z,18.80
2019-03-20T11:57:52.058Z,17.40
2019-03-20T12:00:24.338Z,17.10
2019-03-20T12:02:54.455Z,17.20
2019-03-20T12:05:24.778Z,17.20
2019-03-20T12:07:55.103Z,18.00
2019-03-20T12:10:37.099Z,17.90
2019-03-20T12:13:08.761Z,18.20
2019-03-20T12:15:38.975Z,18.90
2019-03-20T12:18:10.531Z,17.80
2019-03-20T12:20:42.695Z,17.70
2019-03-20T12:23:13.698Z,18.10
2019-03-20T12:25:44.468Z,18.30
2019-03-20T12:28:16.330Z,18.40
2019-03-20T12:30:46.858Z,17.90
2019-03-20T12:33:17.182Z,19.00
2019-03-20T12:35:48.938Z,18.30
2019-03-20T12:38:19.263Z,16.70
2019-03-20T12:40:49.794Z,15.50
2019-03-20T12:43:20.117Z,14.80
2019-03-20T12:45:50.236Z,13.70
2019-03-20T12:48:20.561Z,13.00
2019-03-20T12:50:51.092Z,12.60
2019-03-20T12:53:25.607Z,12.70
2019-03-20T12:55:55.832Z,13.10
2019-03-20T12:58:26.156Z,13.30
2019-03-20T13:00:56.477Z,13.20
2019-03-20T13:03:26.801Z,13.20
2019-03-20T13:05:57.118Z,13.60
2019-03-20T13:08:27.243Z,13.60
2019-03-20T13:10:57.774Z,13.60
2019-03-20T13:13:28.301Z,14.10
2019-03-20T13:15:58.626Z,14.60
2019-03-20T13:18:28.950Z,14.90
2019-03-20T13:20:59.261Z,15.00
2019-03-20T13:23:35.536Z,15.40
2019-03-20T13:26:05.858Z,15.60
2019-03-20T13:28:36.181Z,14.70
2019-03-20T13:31:12.035Z,14.10
2019-03-20T13:33:42.770Z,13.10
2019-03-20T13:36:14.117Z,13.00
2019-03-20T13:38:44.440Z,12.90
2019-03-20T13:41:14.764Z,12.90
2019-03-20T13:43:45.088Z,12.70
2019-03-20T13:46:15.617Z,12.60
2019-03-20T13:48:45.940Z,12.30
2019-03-20T13:51:16.270Z,12.10
2019-03-20T13:53:46.587Z,12.00
2019-03-20T13:56:16.913Z,12.10
2019-03-20T13:58:46.914Z,12.70
2019-03-20T14:01:17.762Z,12.90
2019-03-20T14:03:48.496Z,12.80
2019-03-20T14:06:19.031Z,12.60
2019-03-20T14:08:49.556Z,12.30
2019-03-20T14:11:20.491Z,12.20
2019-03-20T14:13:50.816Z,12.10
2019-03-20T14:16:21.344Z,12.20
2019-03-20T14:18:51.464Z,12.10
2019-03-20T14:21:22.404Z,12.30
2019-03-20T14:23:52.929Z,12.20
2019-03-20T14:26:23.138Z,12.30
2019-03-20T14:28:53.873Z,12.20
2019-03-20T14:31:24.930Z,12.20
2019-03-20T14:33:55.248Z,12.20
2019-03-20T14:36:25.367Z,11.90
2019-03-20T14:38:55.485Z,11.90
2019-03-20T14:41:26.017Z,11.90
2019-03-20T14:43:56.345Z,11.90
2019-03-20T14:46:26.662Z,11.90
2019-03-20T14:48:57.194Z,11.70
2019-03-20T14:51:27.405Z,11.70
2019-03-20T14:53:58.042Z,11.60
2019-03-20T14:56:28.580Z,11.50
2019-03-20T14:58:58.898Z,11.40
2019-03-20T15:01:30.859Z,11.30
2019-03-20T15:04:01.184Z,11.30
2019-03-20T15:06:31.394Z,11.20
2019-03-20T15:09:02.035Z,11.30
2019-03-20T15:11:32.562Z,11.30
2019-03-20T15:14:02.885Z,11.30
2019-03-20T15:16:33.210Z,11.20
2019-03-20T15:19:03.535Z,11.20
2019-03-20T15:21:34.061Z,11.20
2019-03-20T15:24:06.031Z,11.20
2019-03-20T15:26:36.757Z,11.10
2019-03-20T15:29:07.275Z,11.10
2019-03-20T15:31:37.609Z,11.00
2019-03-20T15:34:08.753Z,11.00
2019-03-20T15:36:39.485Z,10.90
2019-03-20T15:39:10.019Z,10.90
2019-03-20T15:41:40.746Z,10.80
2019-03-20T15:44:11.479Z,10.80
2019-03-20T15:46:42.215Z,10.80
2019-03-20T15:49:12.332Z,10.80
2019-03-20T15:51:42.695Z,10.70
2019-03-20T15:54:13.184Z,10.70
2019-03-20T15:56:43.513Z,10.70
2019-03-20T15:59:13.836Z,10.70
2019-03-20T16:01:44.156Z,10.70
2019-03-20T16:04:14.684Z,10.60
2019-03-20T16:06:45.010Z,10.60
2019-03-20T16:09:15.741Z,10.60
2019-03-20T16:11:47.694Z,10.60
2019-03-20T16:14:18.029Z,10.50
2019-03-20T16:16:48.351Z,10.50
2019-03-20T16:19:18.674Z,10.40
2019-03-20T16:21:49.010Z,10.40
2019-03-20T16:24:20.234Z,10.30
2019-03-20T16:26:51.080Z,10.30
2019-03-20T16:29:21.608Z,10.30
2019-03-20T16:31:51.935Z,10.30
2019-03-20T16:34:22.255Z,10.20
2019-03-20T16:36:52.469Z,10.10
2019-03-20T16:39:22.912Z,10.20
2019-03-20T16:41:54.045Z,10.10
2019-03-20T16:44:24.463Z,10.20
2019-03-20T16:46:55.014Z,10.10
2019-03-20T16:49:25.836Z,10.10
2019-03-20T16:51:58.628Z,10.00
2019-03-20T16:54:28.948Z,10.00
2019-03-20T16:56:59.269Z,9.90
2019-03-20T16:59:29.245Z,9.90
2019-03-20T17:01:59.151Z,9.90
2019-03-20T17:04:29.416Z,9.90
2019-03-20T17:06:59.742Z,9.90
2019-03-20T17:09:30.066Z,9.80
2019-03-20T17:12:00.390Z,9.90
2019-03-20T17:14:30.712Z,9.90
2019-03-20T17:17:01.445Z,9.90
2019-03-20T17:19:31.575Z,9.90
2019-03-20T17:22:01.890Z,9.90
2019-03-20T17:24:32.416Z,9.90
2019-03-20T17:27:02.740Z,9.90
2019-03-20T17:29:33.053Z,9.80
2019-03-20T17:32:03.388Z,9.90
2019-03-20T17:34:33.916Z,9.80
2019-03-20T17:37:04.241Z,9.80
2019-03-20T17:39:34.359Z,9.80
2019-03-20T17:42:04.887Z,9.80
2019-03-20T17:44:35.009Z,9.80
2019-03-20T17:47:05.329Z,9.80
2019-03-20T17:49:36.065Z,9.70
2019-03-20T17:52:06.181Z,9.70
2019-03-20T17:54:36.301Z,9.70
2019-03-20T17:57:06.821Z,9.70
2019-03-20T17:59:37.358Z,9.70
2019-03-20T18:02:07.699Z,9.70
2019-03-20T18:04:37.896Z,9.70
2019-03-20T18:07:08.740Z,9.70
2019-03-20T18:09:38.859Z,9.70
2019-03-20T18:12:09.084Z,9.70
2019-03-20T18:14:39.710Z,9.70
2019-03-20T18:17:10.240Z,9.70
2019-03-20T18:19:40.561Z,9.70
2019-03-20T18:22:12.135Z,9.70
2019-03-20T18:24:42.439Z,9.70
2019-03-20T18:27:12.762Z,9.70
2019-03-20T18:29:43.421Z,9.70
2019-03-20T18:32:14.024Z,9.70
2019-03-20T18:34:44.143Z,9.80
2019-03-20T18:37:14.466Z,9.80
2019-03-20T18:39:44.781Z,9.80
2019-03-20T18:42:15.123Z,9.80
2019-03-20T18:44:45.446Z,9.80
2019-03-20T18:47:16.181Z,9.70
2019-03-20T18:49:46.507Z,9.80
2019-03-20T18:52:17.025Z,9.80
2019-03-20T18:54:47.565Z,9.80
2019-03-20T18:57:19.063Z,9.80
2019-03-20T18:59:51.481Z,9.70
2019-03-20T19:02:23.453Z,9.70
2019-03-20T19:04:53.919Z,9.70
2019-03-20T19:07:24.694Z,9.70
2019-03-20T19:09:57.511Z,9.70
2019-03-20T19:12:28.216Z,9.70
2019-03-20T19:14:58.657Z,9.60
2019-03-20T19:17:29.477Z,9.60
2019-03-20T19:20:00.641Z,9.60
2019-03-20T19:22:30.947Z,9.60
2019-03-20T19:25:01.694Z,9.60
2019-03-20T19:27:32.205Z,9.50
2019-03-20T19:30:02.533Z,9.50
2019-03-20T19:32:33.059Z,9.50
2019-03-20T19:35:05.432Z,9.50
2019-03-20T19:37:35.753Z,9.40
2019-03-20T19:40:09.772Z,9.50
2019-03-20T19:42:39.815Z,9.50
2019-03-20T19:45:13.278Z,9.50
2019-03-20T19:47:43.602Z,9.40
2019-03-20T19:50:15.501Z,9.40
2019-03-20T19:52:45.691Z,9.40
2019-03-20T19:55:18.042Z,9.40
2019-03-20T19:57:48.590Z,9.40
2019-03-20T20:00:28.533Z,9.40
2019-03-20T20:03:00.708Z,9.30
2019-03-20T20:05:30.642Z,9.30
2019-03-20T20:08:00.941Z,9.20
2019-03-20T20:10:31.158Z,9.20
2019-03-20T20:13:02.040Z,9.30
2019-03-20T20:15:35.616Z,9.20
2019-03-20T20:18:05.636Z,9.20
2019-03-20T20:20:37.343Z,9.20
2019-03-20T20:23:07.398Z,9.10
2019-03-20T20:25:37.298Z,9.10
2019-03-20T20:28:07.332Z,9.10
2019-03-20T20:30:37.500Z,9.20
2019-03-20T20:33:07.429Z,9.20
2019-03-20T20:35:37.423Z,9.10
2019-03-20T20:38:07.421Z,9.10
2019-03-20T20:40:37.423Z,9.10
2019-03-20T20:43:07.932Z,9.00
2019-03-20T20:45:39.702Z,9.00
2019-03-20T20:48:09.813Z,9.00
2019-03-20T20:50:40.132Z,9.00
2019-03-20T20:53:10.453Z,8.90
2019-03-20T20:55:40.569Z,8.90
2019-03-20T20:58:10.895Z,8.90
2019-03-20T21:00:41.013Z,8.90
2019-03-20T21:03:11.337Z,9.00
2019-03-20T21:05:41.467Z,8.90
2019-03-20T21:08:11.780Z,8.90
2019-03-20T21:10:42.309Z,8.80
2019-03-20T21:13:12.630Z,8.80
2019-03-20T21:15:46.763Z,8.80
2019-03-20T21:18:44.204Z,8.80
2019-03-20T21:21:14.731Z,8.80
2019-03-20T21:24:21.104Z,8.90
2019-03-20T21:27:09.855Z,8.90
2019-03-20T21:30:03.117Z,8.90
2019-03-20T21:32:48.801Z,8.90
2019-03-20T21:35:44.726Z,8.90
2019-03-20T21:38:13.824Z,9.00
2019-03-20T21:41:09.538Z,8.90
2019-03-20T21:44:04.644Z,8.90
2019-03-20T21:46:49.100Z,8.80
2019-03-20T21:49:19.627Z,8.80
2019-03-20T21:51:49.939Z,8.80
2019-03-20T21:54:45.874Z,8.70
2019-03-20T21:57:27.872Z,8.70
2019-03-20T22:00:20.529Z,8.70
2019-03-20T22:02:51.057Z,8.70
2019-03-20T22:05:41.031Z,8.70
2019-03-20T22:08:12.379Z,8.60
2019-03-20T22:11:00.523Z,8.60
2019-03-20T22:13:33.719Z,8.60
2019-03-20T22:16:21.238Z,8.60
2019-03-20T22:19:11.020Z,8.60
2019-03-20T22:22:06.737Z,8.50
2019-03-20T22:24:56.519Z,8.50
2019-03-20T22:27:47.731Z,8.50
2019-03-20T22:30:18.465Z,8.40
2019-03-20T22:33:24.842Z,8.40
2019-03-20T22:35:55.157Z,8.40
2019-03-20T22:38:40.430Z,8.30
2019-03-20T22:41:33.487Z,8.30
2019-03-20T22:44:04.638Z,8.30
2019-03-20T22:46:43.556Z,8.20
2019-03-20T22:49:19.409Z,8.20
2019-03-20T22:51:52.806Z,8.20
2019-03-20T22:54:59.383Z,8.30
2019-03-20T22:57:35.437Z,8.30
2019-03-20T23:00:09.036Z,8.40
2019-03-20T23:02:48.167Z,8.30
2019-03-20T23:05:18.687Z,8.40
2019-03-20T23:07:49.228Z,8.40
2019-03-20T23:10:19.342Z,8.30
2019-03-20T23:12:49.665Z,8.40
2019-03-20T23:15:21.535Z,8.40
2019-03-20T23:17:52.362Z,8.40
2019-03-20T23:20:25.758Z,8.30
2019-03-20T23:22:56.080Z,8.20
2019-03-20T23:25:27.299Z,8.20
2019-03-20T23:27:57.642Z,8.10
2019-03-20T23:30:33.810Z,8.10
2019-03-20T23:33:03.929Z,8.00
2019-03-20T23:35:34.252Z,8.00
2019-03-20T23:38:04.577Z,8.00
2019-03-20T23:40:34.902Z,7.90
2019-03-20T23:43:10.639Z,7.90
2019-03-20T23:45:41.490Z,7.70
2019-03-20T23:48:21.051Z,7.70
2019-03-20T23:50:54.422Z,7.60
2019-03-20T23:53:24.746Z,7.60
2019-03-20T23:55:54.867Z,7.50
2019-03-20T23:58:25.190Z,7.50
